Time;durP1;ratioP1;P1;durP2;ratioP2;P2;SDS_P1;SDS_P2;PMS_P1;PMS_P2;Temp;Humidity;BMP_temperature;BMP_pressure;BME280_temperature;BME280_humidity;BME280_pressure;Samples;Min_cycle;Max_cycle;Signal;HPM_P1;HPM_P2
2022/11/20 05:32:13;;;;;;;8.50;5.55;;;9.50;86.80;;;;;;5083402;23;20046;-79
2022/11/20 05:34:39;;;;;;;8.60;5.90;;;9.60;86.80;;;;;;4955106;29;20035;-79
2022/11/20 05:37:04;;;;;;;8.15;5.65;;;9.60;86.70;;;;;;4943961;29;20373;-79
2022/11/20 05:39:30;;;;;;;7.88;5.00;;;9.60;86.80;;;;;;4937735;29;20032;-79
2022/11/20 05:44:40;;;;;;;15.00;5.15;;;9.60;86.90;;;;;;4938314;29;20066;-79
2022/11/20 05:47:05;;;;;;;6.30;4.22;;;9.60;86.90;;;;;;4937724;29;20108;-79
2022/11/20 05:49:32;;;;;;;8.57;5.10;;;9.60;87.00;;;;;;4953336;29;20027;-79
2022/11/20 05:51:57;;;;;;;6.65;4.88;;;9.70;87.00;;;;;;4954877;28;20501;-79
2022/11/20 05:54:23;;;;;;;10.05;4.68;;;9.60;87.10;;;;;;4955376;29;20130;-79
2022/11/20 05:56:49;;;;;;;10.27;5.35;;;9.70;87.10;;;;;;4956846;28;20033;-79
2022/11/20 05:59:15;;;;;;;6.20;4.68;;;9.70;87.20;;;;;;4955284;29;20031;-76
2022/11/20 06:01:40;;;;;;;7.93;4.47;;;9.70;87.10;;;;;;4944787;29;20028;-78
2022/11/20 06:04:06;;;;;;;9.48;4.65;;;9.70;87.00;;;;;;4953989;29;20118;-76
2022/11/20 06:06:31;;;;;;;6.97;4.95;;;9.70;87.00;;;;;;4954605;28;20047;-76
2022/11/20 06:08:58;;;;;;;6.88;4.68;;;9.80;86.80;;;;;;4955510;29;20562;-75
2022/11/20 06:11:24;;;;;;;5.88;4.68;;;9.80;86.80;;;;;;4949987;29;20035;-75
2022/11/20 06:13:50;;;;;;;5.80;4.25;;;9.80;87.20;;;;;;4960704;28;20031;-75
2022/11/20 06:16:18;;;;;;;4.88;2.97;;;9.80;87.50;;;;;;4960271;28;20028;-77
2022/11/20 06:18:45;;;;;;;4.22;3.13;;;9.80;87.70;;;;;;4959219;29;20067;-78
2022/11/20 06:21:10;;;;;;;4.85;3.33;;;9.80;87.80;;;;;;4960454;28;20098;-75
2022/11/20 06:23:37;;;;;;;5.18;3.38;;;9.80;87.70;;;;;;4960425;29;20027;-78
2022/11/20 06:26:11;;;;;;;4.80;3.08;;;9.80;87.50;;;;;;4955578;29;20111;-76
2022/11/20 06:28:38;;;;;;;4.28;3.25;;;9.80;87.40;;;;;;4955827;29;20409;-76
2022/11/20 06:31:04;;;;;;;6.82;3.60;;;9.80;87.30;;;;;;4939771;29;20083;-77
2022/11/20 06:33:30;;;;;;;3.63;2.95;;;9.90;87.10;;;;;;4955825;29;20040;-76
2022/11/20 06:36:00;;;;;;;3.97;2.90;;;9.90;87.00;;;;;;4939775;29;20412;-76
2022/11/20 06:38:27;;;;;;;5.15;2.50;;;9.90;86.90;;;;;;4958981;29;20486;-77
2022/11/20 06:40:53;;;;;;;3.60;2.88;;;9.90;86.80;;;;;;4958252;29;20411;-77
2022/11/20 06:43:18;;;;;;;5.05;2.75;;;9.90;86.60;;;;;;4960223;28;20113;-77
2022/11/20 06:45:44;;;;;;;3.88;3.08;;;9.90;86.60;;;;;;4960048;28;20024;-76
2022/11/20 06:48:10;;;;;;;5.13;2.72;;;9.90;86.60;;;;;;4960018;28;20024;-77
2022/11/20 06:50:38;;;;;;;3.63;2.58;;;9.90;86.80;;;;;;4943024;29;20070;-77
2022/11/20 06:53:05;;;;;;;4.03;3.17;;;9.90;86.70;;;;;;4949614;29;20034;-77
2022/11/20 06:55:31;;;;;;;3.20;2.70;;;9.90;86.70;;;;;;4958726;29;20019;-77
2022/11/20 06:57:57;;;;;;;3.58;2.33;;;9.90;86.60;;;;;;4958129;29;20042;-77
2022/11/20 07:00:23;;;;;;;3.28;2.45;;;10.00;86.50;;;;;;4959802;28;20024;-77
2022/11/20 07:02:48;;;;;;;6.38;3.00;;;10.00;86.40;;;;;;4959767;28;20055;-77
2022/11/20 07:05:14;;;;;;;7.63;4.28;;;10.00;86.30;;;;;;4959655;28;20483;-75
2022/11/20 07:07:40;;;;;;;8.05;4.78;;;10.00;86.40;;;;;;4959319;29;20027;-78
2022/11/20 07:10:06;;;;;;;7.57;5.15;;;10.00;86.40;;;;;;4959532;28;20051;-74
2022/11/20 07:12:31;;;;;;;9.13;5.45;;;10.00;86.30;;;;;;4958428;29;20054;-77
2022/11/20 07:14:57;;;;;;;11.13;5.45;;;10.00;86.20;;;;;;4958680;29;20036;-75
2022/11/20 07:17:22;;;;;;;9.52;4.88;;;10.00;86.30;;;;;;4948752;29;20036;-76
2022/11/20 07:19:48;;;;;;;10.40;5.60;;;10.00;86.60;;;;;;4939245;29;20020;-74
2022/11/20 07:22:14;;;;;;;7.82;5.38;;;10.00;86.50;;;;;;4940347;29;20087;-74
2022/11/20 07:24:39;;;;;;;7.63;4.70;;;10.00;86.50;;;;;;4938743;29;20424;-75
2022/11/20 07:27:05;;;;;;;6.30;3.53;;;10.00;86.50;;;;;;4952488;29;20238;-75
2022/11/20 07:29:31;;;;;;;5.97;3.28;;;10.10;86.30;;;;;;4959089;28;20019;-75
2022/11/20 07:31:56;;;;;;;5.28;3.22;;;10.10;86.50;;;;;;4958486;28;20055;-75
2022/11/20 07:34:22;;;;;;;3.58;3.28;;;10.10;86.30;;;;;;4957453;29;20031;-73
2022/11/20 07:36:48;;;;;;;6.05;2.75;;;10.10;86.30;;;;;;4958795;29;20031;-75
2022/11/20 07:39:14;;;;;;;5.55;3.05;;;10.20;86.50;;;;;;4958960;28;20747;-74
2022/11/20 07:41:39;;;;;;;3.58;3.08;;;10.20;86.10;;;;;;4957591;29;20107;-76
2022/11/20 07:44:05;;;;;;;3.75;2.58;;;10.20;86.20;;;;;;4957481;29;20038;-77
2022/11/20 07:46:31;;;;;;;4.25;3.00;;;10.20;86.00;;;;;;4958403;28;20055;-79
2022/11/20 07:48:56;;;;;;;5.47;2.70;;;10.20;85.90;;;;;;4958820;28;20058;-79
2022/11/20 07:51:22;;;;;;;4.15;2.95;;;10.20;86.00;;;;;;4958880;28;20071;-81
2022/11/20 07:53:50;;;;;;;3.38;2.45;;;10.20;86.00;;;;;;4958249;28;20035;-77
2022/11/20 07:56:15;;;;;;;3.63;2.72;;;10.20;85.70;;;;;;4958935;28;20089;-79
2022/11/20 07:58:41;;;;;;;4.00;2.90;;;10.20;85.60;;;;;;4956819;29;20498;-75
2022/11/20 08:01:08;;;;;;;4.90;2.78;;;10.10;85.30;;;;;;4958231;28;20118;-77
2022/11/20 08:03:34;;;;;;;4.22;2.95;;;10.10;85.40;;;;;;4950466;29;20031;-79
2022/11/20 08:06:01;;;;;;;4.57;2.63;;;10.10;85.60;;;;;;4957662;28;20039;-76
2022/11/20 08:08:27;;;;;;;3.97;2.88;;;10.00;85.70;;;;;;4957397;28;20031;-78
2022/11/20 08:14:11;;;;;;;4.75;2.88;;;10.00;85.70;;;;;;4956680;29;20031;-75
2022/11/20 08:16:22;;;;;;;6.43;3.30;;;9.90;85.60;;;;;;4944544;29;20086;-74
2022/11/20 08:18:48;;;;;;;6.32;2.97;;;9.90;85.60;;;;;;4951431;29;20035;-75
2022/11/20 08:21:13;;;;;;;5.65;4.30;;;9.90;85.70;;;;;;4953160;28;20062;-79
2022/11/20 08:23:39;;;;;;;4.15;3.05;;;9.90;85.70;;;;;;4961164;28;20031;-74
2022/11/20 08:26:04;;;;;;;6.18;3.30;;;9.80;85.80;;;;;;4950647;29;20165;-75
2022/11/20 08:28:30;;;;;;;4.32;2.95;;;9.90;85.80;;;;;;4951049;29;20054;-77
2022/11/20 08:31:00;;;;;;;5.05;3.15;;;9.90;85.70;;;;;;4949865;28;20868;-75
2022/11/20 08:33:26;;;;;;;6.00;3.45;;;9.90;85.60;;;;;;4948999;29;20154;-74
2022/11/20 08:35:52;;;;;;;5.78;4.03;;;9.90;85.50;;;;;;4954381;28;20600;-74
2022/11/20 08:38:18;;;;;;;10.52;4.68;;;9.90;85.50;;;;;;4949567;29;20028;-75
2022/11/20 08:41:23;;;;;;;10.85;4.80;;;10.00;85.50;;;;;;4954370;29;20035;-75
2022/11/20 08:43:31;;;;;;;9.05;4.57;;;10.10;85.70;;;;;;4953860;29;20028;-75
2022/11/20 08:45:57;;;;;;;8.20;3.92;;;10.20;85.70;;;;;;4952187;29;20031;-74
2022/11/20 08:48:23;;;;;;;7.28;4.00;;;10.30;85.50;;;;;;4943600;29;20031;-74
2022/11/20 08:50:48;;;;;;;8.35;3.35;;;10.30;85.70;;;;;;4952249;29;20027;-75
2022/11/20 08:53:14;;;;;;;7.25;3.80;;;10.40;85.80;;;;;;4952641;29;20043;-74
2022/11/20 08:55:40;;;;;;;10.27;4.35;;;10.50;85.60;;;;;;4947078;28;20039;-74
2022/11/20 08:58:06;;;;;;;7.70;3.60;;;10.50;85.80;;;;;;4951581;28;20573;-74
2022/11/20 09:00:33;;;;;;;6.13;3.50;;;10.50;85.60;;;;;;4952002;29;20043;-74
2022/11/20 09:03:00;;;;;;;4.93;3.65;;;10.50;85.70;;;;;;4954655;29;20033;-74
2022/11/20 09:05:26;;;;;;;5.72;2.45;;;10.60;85.60;;;;;;4951469;28;20105;-74
2022/11/20 09:07:55;;;;;;;7.57;2.47;;;10.60;85.90;;;;;;4959430;28;20031;-74
2022/11/20 09:10:21;;;;;;;8.13;2.05;;;10.70;85.80;;;;;;4964630;28;20031;-74
2022/11/20 09:12:49;;;;;;;6.97;3.45;;;10.70;85.80;;;;;;4960269;28;20035;-74
2022/11/20 09:15:14;;;;;;;8.85;2.40;;;10.70;86.10;;;;;;4943000;29;20031;-74
2022/11/20 09:17:40;;;;;;;8.25;2.58;;;10.70;86.00;;;;;;4943581;28;20035;-74
2022/11/20 09:20:06;;;;;;;6.03;2.85;;;10.80;86.10;;;;;;4944190;29;20555;-74
2022/11/20 09:22:32;;;;;;;6.10;2.38;;;10.80;86.10;;;;;;4945856;28;20501;-75
2022/11/20 09:24:58;;;;;;;7.13;2.45;;;10.80;86.30;;;;;;4950343;28;20027;-74
2022/11/20 09:27:23;;;;;;;9.13;2.72;;;10.90;86.30;;;;;;4951024;29;20075;-75
2022/11/20 09:29:49;;;;;;;11.68;3.15;;;11.00;86.10;;;;;;4946236;29;20447;-75
2022/11/20 09:32:15;;;;;;;8.57;2.33;;;11.00;86.10;;;;;;4963314;28;20434;-75
2022/11/20 09:34:40;;;;;;;6.72;2.38;;;11.10;86.00;;;;;;4960279;28;20487;-74
2022/11/20 09:37:06;;;;;;;12.60;2.25;;;11.20;85.80;;;;;;4965640;28;20372;-75
2022/11/20 09:39:31;;;;;;;9.93;2.47;;;11.20;85.80;;;;;;4966393;28;20451;-75
2022/11/20 09:42:15;;;;;;;5.32;1.95;;;11.20;85.80;;;;;;4963005;28;20037;-75
2022/11/20 09:45:15;;;;;;;14.98;2.60;;;11.20;85.60;;;;;;4970585;28;20019;-74
2022/11/20 09:47:54;;;;;;;14.40;2.30;;;11.30;85.60;;;;;;4960713;28;20027;-75
2022/11/20 09:50:43;;;;;;;14.45;2.42;;;11.30;85.70;;;;;;4965509;28;20035;-75
2022/11/20 09:53:30;;;;;;;6.18;2.22;;;11.40;85.80;;;;;;4950173;28;20031;-75
2022/11/20 09:55:56;;;;;;;23.80;3.78;;;11.50;85.70;;;;;;4962996;28;20046;-75
2022/11/20 09:58:34;;;;;;;19.23;3.08;;;11.50;85.60;;;;;;4967014;28;20019;-75
2022/11/20 10:01:14;;;;;;;11.77;2.53;;;11.60;85.60;;;;;;4964934;28;20035;-75
2022/11/20 10:04:01;;;;;;;10.98;2.35;;;11.70;85.40;;;;;;4968891;28;20027;-75
2022/11/20 10:06:39;;;;;;;10.88;2.58;;;11.80;85.40;;;;;;4963634;28;20530;-74
2022/11/20 10:09:16;;;;;;;12.10;2.38;;;11.80;84.90;;;;;;4966468;28;20023;-75
2022/11/20 10:12:13;;;;;;;15.15;2.35;;;11.90;85.00;;;;;;4968923;28;20086;-75
2022/11/20 10:14:51;;;;;;;23.42;2.78;;;12.00;84.80;;;;;;4964176;28;20038;-75
2022/11/20 10:17:41;;;;;;;12.80;2.72;;;12.00;84.50;;;;;;4966024;28;20038;-75
2022/11/20 10:20:24;;;;;;;15.25;2.42;;;12.10;84.30;;;;;;4964627;28;20047;-75
2022/11/20 10:23:03;;;;;;;20.02;2.30;;;12.20;84.20;;;;;;4970156;28;20490;-74
2022/11/20 10:26:00;;;;;;;15.82;2.83;;;12.20;84.00;;;;;;4960598;28;20042;-76
2022/11/20 10:28:52;;;;;;;19.25;2.63;;;12.20;83.90;;;;;;4961944;28;20078;-75
2022/11/20 10:31:33;;;;;;;15.60;3.00;;;12.20;83.50;;;;;;4960875;28;20486;-74
2022/11/20 10:34:05;;;;;;;11.15;3.78;;;12.40;83.70;;;;;;4961486;28;20033;-75
2022/11/20 10:36:36;;;;;;;14.93;2.63;;;12.50;83.40;;;;;;4958279;28;20024;-75
2022/11/20 10:39:17;;;;;;;19.05;2.78;;;12.50;83.30;;;;;;4961901;28;20027;-75
2022/11/20 10:41:48;;;;;;;23.77;3.63;;;12.60;83.30;;;;;;4966993;28;20395;-77
2022/11/20 10:47:18;;;;;;;16.13;2.50;;;12.70;83.00;;;;;;4965287;28;20041;-75
2022/11/20 10:49:53;;;;;;;17.58;3.00;;;12.70;82.90;;;;;;4963772;28;20023;-74
2022/11/20 10:52:48;;;;;;;16.33;3.03;;;12.70;83.20;;;;;;4964393;28;20019;-75
2022/11/20 10:55:30;;;;;;;11.95;2.80;;;12.60;83.20;;;;;;4962973;28;20023;-75
2022/11/20 10:58:50;;;;;;;18.98;3.22;;;12.50;82.70;;;;;;4977427;28;20031;-75
2022/11/20 11:01:18;;;;;;;22.70;3.83;;;12.50;82.80;;;;;;4956594;28;20418;-80
2022/11/20 11:03:44;;;;;;;20.42;3.90;;;12.50;83.10;;;;;;4957975;28;20027;-76
2022/11/20 11:06:28;;;;;;;12.02;2.92;;;12.50;83.50;;;;;;4946178;28;20101;-78
2022/11/20 11:08:58;;;;;;;14.48;3.10;;;12.50;83.30;;;;;;4961910;28;20023;-79
2022/11/20 11:11:28;;;;;;;10.95;2.42;;;12.60;83.10;;;;;;4967929;28;20031;-78
2022/11/20 11:14:11;;;;;;;14.27;2.97;;;12.70;83.30;;;;;;4964694;28;20035;-79
2022/11/20 11:16:50;;;;;;;10.32;3.25;;;12.70;83.10;;;;;;4964125;28;20495;-79
2022/11/20 11:19:16;;;;;;;18.30;3.55;;;12.80;83.00;;;;;;4963428;28;20495;-79
2022/11/20 11:21:48;;;;;;;19.13;2.92;;;12.90;83.00;;;;;;4967018;28;20035;-78
2022/11/20 11:24:31;;;;;;;18.75;3.30;;;13.00;82.60;;;;;;4963147;28;20022;-79
2022/11/20 11:27:04;;;;;;;16.08;4.05;;;13.20;82.60;;;;;;4968064;28;20082;-79
2022/11/20 11:29:30;;;;;;;14.85;3.22;;;13.30;82.40;;;;;;4967496;28;20015;-79
2022/11/20 11:32:14;;;;;;;15.55;3.85;;;13.20;82.20;;;;;;4968333;28;20117;-79
2022/11/20 11:34:41;;;;;;;16.25;2.85;;;13.30;81.80;;;;;;4965144;28;20042;-78
2022/11/20 11:37:21;;;;;;;14.30;3.08;;;13.30;81.80;;;;;;4957928;28;20023;-78
2022/11/20 11:39:48;;;;;;;14.55;3.28;;;13.30;81.30;;;;;;4953840;29;20028;-84
2022/11/20 11:42:19;;;;;;;19.30;2.97;;;13.30;81.00;;;;;;4958049;28;20032;-80
2022/11/20 11:45:05;;;;;;;15.10;2.42;;;13.40;81.00;;;;;;4955302;29;20027;-78
2022/11/20 11:47:41;;;;;;;16.35;3.05;;;13.40;81.30;;;;;;4957331;28;20055;-77
2022/11/20 11:50:10;;;;;;;17.45;3.38;;;13.40;80.80;;;;;;4956585;28;20020;-78
2022/11/20 11:53:03;;;;;;;18.33;2.58;;;13.40;80.70;;;;;;4953866;29;20023;-78
2022/11/20 11:55:45;;;;;;;17.00;3.67;;;13.30;80.00;;;;;;4947244;29;20020;-76
2022/11/20 11:58:23;;;;;;;11.80;1.95;;;13.30;79.70;;;;;;4947032;29;20487;-78
2022/11/20 12:01:14;;;;;;;12.10;2.85;;;13.20;80.00;;;;;;4951322;29;20090;-77
2022/11/20 12:03:47;;;;;;;12.20;2.03;;;13.20;79.40;;;;;;4947088;29;20152;-76
2022/11/20 12:06:16;;;;;;;9.98;2.42;;;13.20;78.70;;;;;;4946830;28;20086;-78
2022/11/20 12:09:09;;;;;;;8.93;1.88;;;13.30;78.50;;;;;;4945864;29;20042;-78
2022/11/20 12:11:44;;;;;;;12.52;2.35;;;13.30;78.40;;;;;;4950544;29;20038;-78
2022/11/20 12:14:19;;;;;;;10.13;1.98;;;13.20;78.00;;;;;;4955076;29;20031;-78
2022/11/20 12:16:44;;;;;;;18.33;2.33;;;13.20;77.70;;;;;;4947067;29;20066;-78
2022/11/20 12:19:12;;;;;;;7.85;1.63;;;13.20;77.00;;;;;;4947993;29;20070;-78
2022/11/20 12:22:00;;;;;;;10.65;2.35;;;13.20;76.20;;;;;;4948220;29;20086;-77
2022/11/20 12:24:41;;;;;;;10.27;2.42;;;13.20;76.50;;;;;;4948786;29;20043;-78
2022/11/20 12:27:39;;;;;;;9.95;1.98;;;13.30;76.10;;;;;;4950866;29;20490;-77
2022/11/20 12:30:35;;;;;;;14.02;2.40;;;13.30;76.10;;;;;;4965722;28;20050;-78
2022/11/20 12:33:19;;;;;;;12.70;1.73;;;13.40;76.10;;;;;;4952296;28;20044;-78
2022/11/20 12:35:54;;;;;;;8.55;1.42;;;13.50;75.70;;;;;;4950867;29;20063;-78
2022/11/20 12:38:45;;;;;;;14.93;1.85;;;13.60;75.50;;;;;;4952231;29;20038;-78
2022/11/20 12:45:10;;;;;;;21.77;3.33;;;13.50;75.20;;;;;;4951933;29;20046;-78
2022/11/20 12:48:05;;;;;;;9.45;2.58;;;13.60;74.70;;;;;;4934081;29;20047;-78
2022/11/20 12:50:50;;;;;;;8.30;1.83;;;13.60;74.80;;;;;;4957401;28;20110;-78
2022/11/20 12:53:30;;;;;;;16.05;2.67;;;13.50;74.50;;;;;;4956389;29;20081;-78
2022/11/20 12:55:59;;;;;;;8.45;2.50;;;13.40;74.60;;;;;;4957081;28;20039;-77
2022/11/20 12:58:39;;;;;;;14.95;2.80;;;13.30;75.10;;;;;;4952239;29;20035;-78
2022/11/20 13:01:47;;;;;;;4.78;1.38;;;13.30;74.70;;;;;;4936362;29;20492;-78
2022/11/20 13:04:43;;;;;;;11.43;1.85;;;13.40;75.50;;;;;;4938490;29;20496;-78
2022/11/20 13:07:13;;;;;;;10.60;1.85;;;13.30;75.20;;;;;;4941055;29;20057;-78
2022/11/20 13:09:50;;;;;;;10.88;1.75;;;13.30;75.50;;;;;;4957778;28;20776;-77
2022/11/20 13:12:20;;;;;;;14.25;2.28;;;13.30;75.70;;;;;;4957186;28;20027;-78
2022/11/20 13:15:21;;;;;;;15.95;2.15;;;13.20;75.30;;;;;;4957131;28;20031;-78
2022/11/20 13:18:00;;;;;;;15.98;2.53;;;13.30;75.30;;;;;;4941901;29;20040;-78
2022/11/20 13:20:26;;;;;;;8.60;1.55;;;13.30;75.00;;;;;;4952578;29;20031;-78
2022/11/20 13:22:54;;;;;;;11.27;2.33;;;13.40;75.10;;;;;;4952984;29;20028;-78
2022/11/20 13:25:33;;;;;;;20.45;2.65;;;13.50;74.80;;;;;;4955768;29;20031;-78
2022/11/20 13:28:19;;;;;;;12.55;2.47;;;13.50;74.60;;;;;;4955888;29;20439;-78
2022/11/20 13:30:55;;;;;;;9.95;2.33;;;13.50;74.80;;;;;;4950059;28;20059;-78
2022/11/20 13:33:36;;;;;;;14.13;1.98;;;13.40;74.80;;;;;;4955716;29;20035;-78
2022/11/20 13:36:22;;;;;;;13.15;1.90;;;13.40;74.80;;;;;;4956117;29;20023;-78
2022/11/20 13:38:50;;;;;;;8.90;1.80;;;13.40;74.80;;;;;;4957041;28;20062;-77
2022/11/20 13:41:33;;;;;;;9.95;2.05;;;13.40;74.60;;;;;;4956331;29;20035;-78
2022/11/20 13:44:10;;;;;;;6.20;1.85;;;13.40;74.50;;;;;;4955480;29;20054;-78
2022/11/20 13:46:43;;;;;;;7.13;1.52;;;13.40;74.30;;;;;;4957399;28;20087;-78
2022/11/20 13:49:17;;;;;;;13.13;2.00;;;13.30;74.10;;;;;;4956960;28;20402;-78
2022/11/20 13:51:48;;;;;;;16.83;2.33;;;13.40;74.40;;;;;;4951808;28;20058;-78
2022/11/20 13:54:26;;;;;;;10.77;2.13;;;13.40;74.90;;;;;;4938277;29;20427;-78
2022/11/20 13:57:24;;;;;;;12.85;2.50;;;13.40;75.20;;;;;;4937808;29;20028;-78
2022/11/20 14:00:21;;;;;;;14.18;2.22;;;13.30;75.40;;;;;;4915430;29;20047;-78
2022/11/20 14:03:21;;;;;;;12.20;2.15;;;13.20;76.20;;;;;;4938316;29;20044;-77
2022/11/20 14:06:04;;;;;;;8.07;1.83;;;13.00;78.00;;;;;;4934469;29;20519;-78
2022/11/20 14:08:38;;;;;;;9.98;2.92;;;13.00;78.30;;;;;;4936308;29;20103;-77
2022/11/20 14:11:24;;;;;;;17.33;3.10;;;12.90;79.40;;;;;;4951699;29;20063;-78
2022/11/20 14:13:59;;;;;;;13.43;2.45;;;13.00;79.90;;;;;;4956662;28;20035;-77
2022/11/20 14:16:26;;;;;;;12.50;3.92;;;13.00;79.60;;;;;;4957183;28;20031;-77
2022/11/20 14:18:53;;;;;;;16.25;5.45;;;13.00;79.70;;;;;;4955321;29;20063;-78
2022/11/20 14:21:29;;;;;;;13.55;3.80;;;13.00;79.90;;;;;;4955609;29;20059;-77
2022/11/20 14:24:05;;;;;;;11.68;2.53;;;13.00;79.80;;;;;;4956960;28;20102;-77
2022/11/20 14:26:31;;;;;;;15.35;3.03;;;12.90;80.00;;;;;;4956145;28;20058;-78
2022/11/20 14:28:57;;;;;;;11.73;3.35;;;13.00;80.10;;;;;;4959415;28;20036;-77
2022/11/20 14:31:26;;;;;;;12.57;4.57;;;13.00;80.40;;;;;;4958953;29;20062;-78
2022/11/20 14:33:55;;;;;;;18.08;5.78;;;13.00;80.20;;;;;;4959555;28;20086;-78
2022/11/20 14:36:23;;;;;;;22.30;5.97;;;12.90;80.50;;;;;;4959164;29;20414;-78
2022/11/20 14:38:50;;;;;;;18.95;5.43;;;12.90;80.60;;;;;;4958890;29;20031;-78
2022/11/20 14:41:23;;;;;;;13.13;5.20;;;12.90;80.90;;;;;;4959870;28;20236;-78
2022/11/20 14:43:59;;;;;;;9.05;2.97;;;13.00;80.90;;;;;;4959275;28;20483;-77
2022/11/20 14:46:25;;;;;;;14.35;3.03;;;13.00;80.40;;;;;;4960171;28;20094;-78
2022/11/20 14:48:55;;;;;;;9.80;2.20;;;13.00;79.90;;;;;;4945351;28;20476;-78
2022/11/20 14:51:42;;;;;;;8.90;2.20;;;12.90;78.90;;;;;;4948181;29;20027;-77
2022/11/20 14:54:21;;;;;;;22.40;3.45;;;12.90;79.90;;;;;;4940781;29;20048;-78
2022/11/20 14:57:02;;;;;;;10.23;2.15;;;12.90;79.10;;;;;;4955510;29;20115;-78
2022/11/20 14:59:30;;;;;;;9.63;3.03;;;12.90;79.40;;;;;;4940411;29;20031;-78
2022/11/20 15:02:05;;;;;;;10.85;2.72;;;12.90;79.40;;;;;;4953435;29;20032;-78
2022/11/20 15:04:31;;;;;;;9.35;2.42;;;12.90;79.30;;;;;;4939024;29;20054;-78
2022/11/20 15:06:59;;;;;;;11.63;1.98;;;12.90;79.30;;;;;;4955156;29;20036;-78
2022/11/20 15:09:25;;;;;;;4.68;2.30;;;12.80;78.60;;;;;;4940965;29;20381;-78
2022/11/20 15:11:57;;;;;;;10.45;2.63;;;12.80;78.20;;;;;;4954518;29;20032;-78
2022/11/20 15:14:25;;;;;;;12.95;2.03;;;12.80;78.40;;;;;;4958188;29;20042;-77
2022/11/20 15:16:51;;;;;;;3.22;1.05;;;12.80;78.30;;;;;;4956241;28;20645;-78
2022/11/20 15:19:20;;;;;;;8.30;1.63;;;12.80;78.90;;;;;;4955049;29;20559;-78
2022/11/20 15:21:46;;;;;;;5.47;1.70;;;12.80;78.90;;;;;;4954556;29;20119;-78
2022/11/20 15:24:12;;;;;;;11.82;3.33;;;12.70;79.10;;;;;;4940787;29;20059;-78
2022/11/20 15:26:39;;;;;;;5.25;2.50;;;12.70;79.20;;;;;;4958113;29;20395;-78
2022/11/20 15:29:08;;;;;;;8.32;2.85;;;12.60;79.70;;;;;;4959355;28;20023;-78
2022/11/20 15:31:34;;;;;;;6.28;2.35;;;12.50;79.70;;;;;;4947880;28;20539;-77
2022/11/20 15:34:00;;;;;;;11.57;2.75;;;12.40;79.50;;;;;;4940040;29;20040;-77
2022/11/20 15:36:25;;;;;;;15.43;3.60;;;12.40;79.60;;;;;;4954565;29;20024;-78
2022/11/20 15:38:51;;;;;;;9.60;3.10;;;12.30;79.90;;;;;;4939954;29;20034;-77
2022/11/20 15:41:17;;;;;;;9.98;3.00;;;12.30;80.00;;;;;;4951905;29;20027;-78
2022/11/20 15:43:42;;;;;;;11.38;3.70;;;12.30;80.00;;;;;;4957696;29;20023;-78
2022/11/20 15:46:16;;;;;;;11.02;3.45;;;12.20;80.10;;;;;;4941446;28;20035;-77
2022/11/20 15:48:51;;;;;;;14.68;3.45;;;12.10;79.70;;;;;;4939955;29;20086;-77
2022/11/20 15:51:38;;;;;;;10.98;3.90;;;12.10;79.90;;;;;;4939626;29;20110;-77
2022/11/20 15:54:12;;;;;;;19.10;4.75;;;12.10;79.80;;;;;;4958116;29;20035;-78
2022/11/20 15:56:38;;;;;;;16.10;4.65;;;12.10;79.90;;;;;;4958685;28;20035;-77
2022/11/20 15:59:03;;;;;;;15.32;4.88;;;12.10;80.10;;;;;;4958450;29;20042;-77
2022/11/20 16:01:29;;;;;;;15.00;4.70;;;12.10;80.20;;;;;;4953622;29;20044;-77
2022/11/20 16:03:54;;;;;;;18.13;5.50;;;12.00;80.30;;;;;;4942873;29;20028;-77
2022/11/20 16:06:21;;;;;;;17.40;6.45;;;12.00;80.30;;;;;;4948074;29;20051;-75
2022/11/20 16:08:47;;;;;;;14.43;5.82;;;12.00;80.20;;;;;;4951653;28;20446;-74
2022/11/20 16:11:15;;;;;;;13.00;4.50;;;11.90;80.10;;;;;;4950253;28;20090;-74
2022/11/20 16:16:30;;;;;;;17.15;7.13;;;12.00;80.10;;;;;;4954239;29;20035;-73
2022/11/20 16:18:56;;;;;;;18.58;5.65;;;12.00;80.30;;;;;;4954983;28;20031;-73
2022/11/20 16:21:30;;;;;;;12.85;5.68;;;12.00;80.20;;;;;;4954338;29;20031;-73
2022/11/20 16:24:01;;;;;;;16.42;5.75;;;12.00;80.40;;;;;;4955293;29;20027;-74
2022/11/20 16:26:28;;;;;;;13.10;4.78;;;11.90;80.30;;;;;;4953454;29;20023;-75
2022/11/20 16:28:54;;;;;;;14.68;4.85;;;11.90;80.20;;;;;;4955751;28;20020;-74
2022/11/20 16:31:20;;;;;;;13.57;4.85;;;11.90;80.40;;;;;;4954256;29;20143;-75
2022/11/20 16:33:51;;;;;;;11.43;3.80;;;11.90;80.30;;;;;;4951643;29;20076;-75
2022/11/20 16:36:18;;;;;;;12.38;3.25;;;11.80;80.40;;;;;;4956488;28;20027;-75
2022/11/20 16:38:44;;;;;;;19.00;4.22;;;11.80;80.10;;;;;;4954740;29;20031;-75
2022/11/20 16:41:13;;;;;;;12.77;5.28;;;11.80;79.90;;;;;;4949264;29;20027;-75
2022/11/20 16:43:57;;;;;;;17.17;4.18;;;11.80;79.50;;;;;;4952653;28;20028;-74
2022/11/20 16:46:25;;;;;;;18.85;4.30;;;11.80;79.60;;;;;;4953295;28;20051;-74
2022/11/20 16:48:56;;;;;;;13.90;4.30;;;11.80;79.70;;;;;;4951739;28;20027;-75
2022/11/20 16:51:23;;;;;;;15.60;6.93;;;11.70;80.00;;;;;;4957459;28;20483;-75
2022/11/20 16:53:50;;;;;;;12.77;6.00;;;11.70;80.10;;;;;;4955828;28;20110;-74
2022/11/20 16:56:18;;;;;;;12.98;4.82;;;11.70;80.00;;;;;;4956288;28;20035;-74
2022/11/20 16:58:45;;;;;;;17.38;5.35;;;11.70;79.30;;;;;;4950124;28;20127;-74
2022/11/20 17:01:14;;;;;;;11.65;4.75;;;11.60;79.40;;;;;;4957965;29;20043;-74
2022/11/20 17:03:41;;;;;;;11.68;5.20;;;11.70;79.60;;;;;;4954784;28;20146;-74
2022/11/20 17:06:18;;;;;;;18.33;6.80;;;11.60;79.80;;;;;;4966403;28;20376;-74
2022/11/20 17:08:45;;;;;;;12.30;5.80;;;11.50;79.80;;;;;;4966784;28;20395;-74
2022/11/20 17:11:13;;;;;;;17.02;6.20;;;11.50;79.20;;;;;;4957631;28;20031;-74
2022/11/20 17:13:39;;;;;;;16.52;7.47;;;11.40;79.70;;;;;;4952621;29;20046;-74
2022/11/20 17:16:11;;;;;;;13.57;5.55;;;11.40;79.40;;;;;;4945940;29;20085;-74
2022/11/20 17:18:36;;;;;;;14.35;5.38;;;11.40;79.70;;;;;;4956285;28;20086;-74
2022/11/20 17:21:04;;;;;;;17.38;5.80;;;11.40;79.80;;;;;;4954729;29;20094;-74
2022/11/20 17:23:35;;;;;;;11.02;6.47;;;11.40;79.60;;;;;;4956446;28;20027;-74
2022/11/20 17:26:11;;;;;;;13.70;6.07;;;11.30;79.60;;;;;;4954874;29;20472;-75
2022/11/20 17:28:37;;;;;;;18.35;6.63;;;11.30;79.80;;;;;;4955822;28;20119;-75
2022/11/20 17:31:09;;;;;;;19.45;6.05;;;11.30;79.70;;;;;;4956503;28;20059;-73
2022/11/20 17:33:36;;;;;;;16.00;6.53;;;11.30;79.80;;;;;;4956360;28;20038;-74
2022/11/20 17:36:03;;;;;;;13.43;5.57;;;11.30;80.10;;;;;;4954052;28;20041;-76
2022/11/20 17:38:29;;;;;;;16.95;6.18;;;11.20;79.90;;;;;;4962155;28;20051;-76
2022/11/20 17:41:06;;;;;;;17.52;5.63;;;11.30;80.00;;;;;;4951003;29;20073;-75
2022/11/20 17:43:32;;;;;;;15.43;5.93;;;11.20;79.80;;;;;;4956232;28;20088;-77
2022/11/20 17:45:58;;;;;;;16.92;6.28;;;11.20;79.80;;;;;;4942695;29;20027;-74
2022/11/20 17:48:24;;;;;;;16.95;6.30;;;11.20;79.90;;;;;;4956924;28;20488;-76
2022/11/20 17:50:50;;;;;;;16.63;7.20;;;11.20;79.80;;;;;;4956529;28;20091;-75
2022/11/20 17:53:16;;;;;;;13.63;6.15;;;11.10;79.90;;;;;;4949979;29;20051;-77
2022/11/20 17:58:28;;;;;;;14.13;5.03;;;11.10;79.70;;;;;;4947539;29;20046;-75
2022/11/20 18:00:54;;;;;;;17.75;5.72;;;11.10;79.80;;;;;;4954552;28;20062;-76
2022/11/20 18:03:22;;;;;;;19.58;5.45;;;11.10;79.80;;;;;;4950952;29;20019;-74
2022/11/20 18:05:48;;;;;;;12.93;5.80;;;11.00;79.90;;;;;;4946909;29;20099;-76
2022/11/20 18:08:14;;;;;;;12.45;5.50;;;11.00;79.90;;;;;;4954633;29;20849;-76
2022/11/20 18:10:39;;;;;;;15.23;5.15;;;11.00;79.90;;;;;;4941222;28;20038;-76
2022/11/20 18:13:05;;;;;;;14.68;4.78;;;11.00;80.00;;;;;;4949880;29;20039;-78
2022/11/20 18:15:31;;;;;;;16.88;5.18;;;11.00;80.00;;;;;;4940172;29;20028;-76
2022/11/20 18:17:57;;;;;;;12.43;5.82;;;10.90;79.80;;;;;;4958773;29;20066;-75
2022/11/20 18:20:23;;;;;;;15.73;7.30;;;10.90;80.00;;;;;;4956795;28;20139;-78
2022/11/20 18:22:48;;;;;;;25.65;8.55;;;11.00;80.10;;;;;;4951228;29;20028;-76
2022/11/20 18:25:14;;;;;;;16.25;8.73;;;10.90;79.60;;;;;;4959173;28;20030;-76
2022/11/20 18:27:40;;;;;;;14.90;6.82;;;10.90;79.90;;;;;;4955770;28;20041;-74
2022/11/20 18:30:06;;;;;;;12.38;6.13;;;10.90;79.90;;;;;;4961622;28;20047;-76
2022/11/20 18:32:34;;;;;;;13.70;5.43;;;10.80;79.90;;;;;;4961718;28;20058;-77
2022/11/20 18:35:00;;;;;;;9.07;4.18;;;10.80;79.90;;;;;;4968689;28;20033;-75
2022/11/20 18:37:26;;;;;;;9.85;4.57;;;10.80;79.90;;;;;;4966730;28;20023;-73
2022/11/20 18:39:52;;;;;;;10.57;4.47;;;10.80;79.90;;;;;;4967363;28;20063;-73
2022/11/20 18:45:03;;;;;;;9.80;4.60;;;10.80;80.10;;;;;;4965302;28;20070;-74
2022/11/20 18:47:32;;;;;;;9.35;5.80;;;10.80;79.90;;;;;;4945184;29;20035;-73
2022/11/20 18:50:00;;;;;;;7.50;4.95;;;10.80;80.10;;;;;;4957802;29;20027;-76
2022/11/20 18:52:27;;;;;;;11.82;4.45;;;10.80;79.90;;;;;;4953924;29;20030;-75
2022/11/20 18:54:54;;;;;;;10.57;4.25;;;10.80;79.70;;;;;;4943383;29;20035;-74
2022/11/20 18:57:22;;;;;;;11.52;4.30;;;10.80;79.70;;;;;;4956464;29;20028;-75